sensor_id;sensor_type;location;lat;lon;timestamp;temperature;humidity
1994;DHT22;998;49.906;10.908;2023-05-07T00:00:25;16.60;99.90
1994;DHT22;998;49.906;10.908;2023-05-07T00:02:52;16.60;99.90
1994;DHT22;998;49.906;10.908;2023-05-07T00:05:20;16.60;99.90
1994;DHT22;998;49.906;10.908;2023-05-07T00:07:47;16.60;99.90
1994;DHT22;998;49.906;10.908;2023-05-07T00:10:16;16.50;99.90
1994;DHT22;998;49.906;10.908;2023-05-07T00:12:43;16.50;99.90
1994;DHT22;998;49.906;10.908;2023-05-07T00:15:11;16.40;99.90
1994;DHT22;998;49.906;10.908;2023-05-07T00:17:38;16.40;99.90
1994;DHT22;998;49.906;10.908;2023-05-07T00:20:06;16.40;99.90
1994;DHT22;998;49.906;10.908;2023-05-07T00:22:34;16.40;99.90
1994;DHT22;998;49.906;10.908;2023-05-07T00:25:01;16.30;99.90
1994;DHT22;998;49.906;10.908;2023-05-07T00:27:30;16.20;99.90
1994;DHT22;998;49.906;10.908;2023-05-07T00:29:57;16.10;99.90
1994;DHT22;998;49.906;10.908;2023-05-07T00:32:25;16.10;99.90
1994;DHT22;998;49.906;10.908;2023-05-07T00:34:52;16.20;99.90
1994;DHT22;998;49.906;10.908;2023-05-07T00:37:19;16.20;99.90
1994;DHT22;998;49.906;10.908;2023-05-07T00:39:47;16.20;99.90
1994;DHT22;998;49.906;10.908;2023-05-07T00:42:14;16.20;99.90
1994;DHT22;998;49.906;10.908;2023-05-07T00:44:43;16.20;99.90
1994;DHT22;998;49.906;10.908;2023-05-07T00:47:11;16.10;99.90
1994;DHT22;998;49.906;10.908;2023-05-07T00:49:41;16.10;99.90
1994;DHT22;998;49.906;10.908;2023-05-07T00:52:12;16.10;99.90
1994;DHT22;998;49.906;10.908;2023-05-07T00:54:41;16.10;99.90
1994;DHT22;998;49.906;10.908;2023-05-07T00:57:09;16.10;99.90
1994;DHT22;998;49.906;10.908;2023-05-07T00:59:37;16.20;99.90
1994;DHT22;998;49.906;10.908;2023-05-07T01:02:07;16.20;99.90
1994;DHT22;998;49.906;10.908;2023-05-07T01:04:34;16.30;99.90
1994;DHT22;998;49.906;10.908;2023-05-07T01:07:02;16.40;99.90
1994;DHT22;998;49.906;10.908;2023-05-07T01:09:30;16.40;99.90
1994;DHT22;998;49.906;10.908;2023-05-07T01:11:58;16.40;99.90
1994;DHT22;998;49.906;10.908;2023-05-07T01:14:26;16.50;99.90
1994;DHT22;998;49.906;10.908;2023-05-07T01:16:54;16.40;99.90
1994;DHT22;998;49.906;10.908;2023-05-07T01:19:23;16.40;99.90
1994;DHT22;998;49.906;10.908;2023-05-07T01:21:51;16.20;99.90
1994;DHT22;998;49.906;10.908;2023-05-07T01:24:22;16.10;99.90
1994;DHT22;998;49.906;10.908;2023-05-07T01:26:49;16.10;99.90
1994;DHT22;998;49.906;10.908;2023-05-07T01:29:16;16.10;99.90
1994;DHT22;998;49.906;10.908;2023-05-07T01:31:44;16.10;99.90
1994;DHT22;998;49.906;10.908;2023-05-07T01:34:13;16.10;99.90
1994;DHT22;998;49.906;10.908;2023-05-07T01:36:43;16.10;99.90
1994;DHT22;998;49.906;10.908;2023-05-07T01:39:11;16.00;99.90
1994;DHT22;998;49.906;10.908;2023-05-07T01:41:40;16.00;99.90
1994;DHT22;998;49.906;10.908;2023-05-07T01:44:09;15.90;99.90
1994;DHT22;998;49.906;10.908;2023-05-07T01:46:37;15.90;99.90
1994;DHT22;998;49.906;10.908;2023-05-07T01:49:04;15.90;99.90
1994;DHT22;998;49.906;10.908;2023-05-07T01:51:32;15.90;99.90
1994;DHT22;998;49.906;10.908;2023-05-07T01:54:00;15.90;99.90
1994;DHT22;998;49.906;10.908;2023-05-07T01:56:27;15.90;99.90
1994;DHT22;998;49.906;10.908;2023-05-07T01:58:56;15.90;99.90
1994;DHT22;998;49.906;10.908;2023-05-07T02:01:23;15.90;99.90
1994;DHT22;998;49.906;10.908;2023-05-07T02:03:50;15.90;99.90
1994;DHT22;998;49.906;10.908;2023-05-07T02:06:17;15.90;99.90
1994;DHT22;998;49.906;10.908;2023-05-07T02:08:45;15.90;99.90
1994;DHT22;998;49.906;10.908;2023-05-07T02:11:12;15.80;99.90
1994;DHT22;998;49.906;10.908;2023-05-07T02:13:39;15.90;99.90
1994;DHT22;998;49.906;10.908;2023-05-07T02:16:08;15.90;99.90
1994;DHT22;998;49.906;10.908;2023-05-07T02:18:36;15.80;99.90
1994;DHT22;998;49.906;10.908;2023-05-07T02:21:04;15.80;99.90
1994;DHT22;998;49.906;10.908;2023-05-07T02:23:31;15.80;99.90
1994;DHT22;998;49.906;10.908;2023-05-07T02:25:58;15.80;99.90
1994;DHT22;998;49.906;10.908;2023-05-07T02:28:26;15.80;99.90
1994;DHT22;998;49.906;10.908;2023-05-07T02:30:53;15.70;99.90
1994;DHT22;998;49.906;10.908;2023-05-07T02:33:22;15.60;99.90
1994;DHT22;998;49.906;10.908;2023-05-07T02:35:49;15.70;99.90
1994;DHT22;998;49.906;10.908;2023-05-07T02:38:17;15.70;99.90
1994;DHT22;998;49.906;10.908;2023-05-07T02:40:45;15.70;99.90
1994;DHT22;998;49.906;10.908;2023-05-07T02:43:12;15.70;99.90
1994;DHT22;998;49.906;10.908;2023-05-07T02:45:39;15.80;99.90
1994;DHT22;998;49.906;10.908;2023-05-07T02:48:07;15.90;99.90
1994;DHT22;998;49.906;10.908;2023-05-07T02:50:36;15.90;99.90
1994;DHT22;998;49.906;10.908;2023-05-07T02:53:03;16.00;99.90
1994;DHT22;998;49.906;10.908;2023-05-07T02:55:30;16.00;99.90
1994;DHT22;998;49.906;10.908;2023-05-07T02:57:58;15.90;99.90
1994;DHT22;998;49.906;10.908;2023-05-07T03:00:25;15.90;99.90
1994;DHT22;998;49.906;10.908;2023-05-07T03:02:53;15.70;99.90
1994;DHT22;998;49.906;10.908;2023-05-07T03:05:20;15.50;99.90
1994;DHT22;998;49.906;10.908;2023-05-07T03:07:49;15.50;99.90
1994;DHT22;998;49.906;10.908;2023-05-07T03:10:16;15.40;99.90
1994;DHT22;998;49.906;10.908;2023-05-07T03:12:44;15.50;99.90
1994;DHT22;998;49.906;10.908;2023-05-07T03:15:11;15.40;99.90
1994;DHT22;998;49.906;10.908;2023-05-07T03:17:39;15.40;99.90
1994;DHT22;998;49.906;10.908;2023-05-07T03:20:07;15.40;99.90
1994;DHT22;998;49.906;10.908;2023-05-07T03:22:35;15.40;99.90
1994;DHT22;998;49.906;10.908;2023-05-07T03:25:04;15.40;99.90
1994;DHT22;998;49.906;10.908;2023-05-07T03:27:32;15.40;99.90
1994;DHT22;998;49.906;10.908;2023-05-07T03:30:00;15.40;99.90
1994;DHT22;998;49.906;10.908;2023-05-07T03:32:28;15.30;99.90
1994;DHT22;998;49.906;10.908;2023-05-07T03:34:55;15.20;99.90
1994;DHT22;998;49.906;10.908;2023-05-07T03:37:22;15.10;99.90
1994;DHT22;998;49.906;10.908;2023-05-07T03:39:50;14.90;99.90
1994;DHT22;998;49.906;10.908;2023-05-07T03:42:19;14.90;99.90
1994;DHT22;998;49.906;10.908;2023-05-07T03:44:46;15.00;99.90
1994;DHT22;998;49.906;10.908;2023-05-07T03:47:13;15.10;99.90
1994;DHT22;998;49.906;10.908;2023-05-07T03:49:41;15.20;99.90
1994;DHT22;998;49.906;10.908;2023-05-07T03:52:08;15.30;99.90
1994;DHT22;998;49.906;10.908;2023-05-07T03:54:36;15.30;99.90
1994;DHT22;998;49.906;10.908;2023-05-07T03:57:03;15.30;99.90
1994;DHT22;998;49.906;10.908;2023-05-07T03:59:32;15.10;99.90
1994;DHT22;998;49.906;10.908;2023-05-07T04:01:59;14.90;99.90
1994;DHT22;998;49.906;10.908;2023-05-07T04:04:27;15.00;99.90
1994;DHT22;998;49.906;10.908;2023-05-07T04:06:58;14.90;99.90
1994;DHT22;998;49.906;10.908;2023-05-07T04:09:26;14.90;99.90
1994;DHT22;998;49.906;10.908;2023-05-07T04:11:53;14.90;99.90
1994;DHT22;998;49.906;10.908;2023-05-07T04:14:21;14.90;99.90
1994;DHT22;998;49.906;10.908;2023-05-07T04:16:50;14.90;99.90
1994;DHT22;998;49.906;10.908;2023-05-07T04:19:17;14.80;99.90
1994;DHT22;998;49.906;10.908;2023-05-07T04:21:44;14.80;99.90
1994;DHT22;998;49.906;10.908;2023-05-07T04:24:12;14.80;99.90
1994;DHT22;998;49.906;10.908;2023-05-07T04:26:39;14.80;99.90
1994;DHT22;998;49.906;10.908;2023-05-07T04:29:07;14.90;99.90
1994;DHT22;998;49.906;10.908;2023-05-07T04:31:34;15.00;99.90
1994;DHT22;998;49.906;10.908;2023-05-07T04:34:03;15.00;99.90
1994;DHT22;998;49.906;10.908;2023-05-07T04:36:31;15.00;99.90
1994;DHT22;998;49.906;10.908;2023-05-07T04:38:59;14.90;99.90
1994;DHT22;998;49.906;10.908;2023-05-07T04:41:27;15.00;99.90
1994;DHT22;998;49.906;10.908;2023-05-07T04:43:54;14.90;99.90
1994;DHT22;998;49.906;10.908;2023-05-07T04:46:22;14.90;99.90
1994;DHT22;998;49.906;10.908;2023-05-07T04:48:50;14.90;99.90
1994;DHT22;998;49.906;10.908;2023-05-07T04:51:19;14.90;99.90
1994;DHT22;998;49.906;10.908;2023-05-07T04:53:47;14.90;99.90
1994;DHT22;998;49.906;10.908;2023-05-07T04:56:14;14.90;99.90
1994;DHT22;998;49.906;10.908;2023-05-07T04:58:41;14.90;99.90
1994;DHT22;998;49.906;10.908;2023-05-07T05:01:09;15.00;99.90
1994;DHT22;998;49.906;10.908;2023-05-07T05:03:36;15.00;99.90
1994;DHT22;998;49.906;10.908;2023-05-07T05:06:05;15.10;99.90
1994;DHT22;998;49.906;10.908;2023-05-07T05:08:34;15.00;99.90
1994;DHT22;998;49.906;10.908;2023-05-07T05:11:02;15.00;99.90
1994;DHT22;998;49.906;10.908;2023-05-07T05:13:29;14.90;99.90
1994;DHT22;998;49.906;10.908;2023-05-07T05:15:57;14.90;99.90
1994;DHT22;998;49.906;10.908;2023-05-07T05:18:24;14.90;99.90
1994;DHT22;998;49.906;10.908;2023-05-07T05:20:52;14.90;99.90
1994;DHT22;998;49.906;10.908;2023-05-07T05:23:19;14.90;99.90
1994;DHT22;998;49.906;10.908;2023-05-07T05:25:48;14.90;99.90
1994;DHT22;998;49.906;10.908;2023-05-07T05:28:15;15.00;99.90
1994;DHT22;998;49.906;10.908;2023-05-07T05:30:43;15.00;99.90
1994;DHT22;998;49.906;10.908;2023-05-07T05:33:10;15.00;99.90
1994;DHT22;998;49.906;10.908;2023-05-07T05:35:37;15.00;99.90
1994;DHT22;998;49.906;10.908;2023-05-07T05:38:05;15.10;99.90
1994;DHT22;998;49.906;10.908;2023-05-07T05:40:32;15.10;99.90
1994;DHT22;998;49.906;10.908;2023-05-07T05:43:01;15.20;99.90
1994;DHT22;998;49.906;10.908;2023-05-07T05:45:28;15.20;99.90
1994;DHT22;998;49.906;10.908;2023-05-07T05:47:56;15.20;99.90
1994;DHT22;998;49.906;10.908;2023-05-07T05:50:23;15.30;99.90
1994;DHT22;998;49.906;10.908;2023-05-07T05:52:51;15.30;99.90
1994;DHT22;998;49.906;10.908;2023-05-07T05:55:18;15.40;99.90
1994;DHT22;998;49.906;10.908;2023-05-07T05:57:46;15.30;99.90
1994;DHT22;998;49.906;10.908;2023-05-07T06:00:15;15.30;99.90
1994;DHT22;998;49.906;10.908;2023-05-07T06:02:43;15.30;99.90
1994;DHT22;998;49.906;10.908;2023-05-07T06:05:10;15.40;99.90
1994;DHT22;998;49.906;10.908;2023-05-07T06:07:38;15.50;99.90
1994;DHT22;998;49.906;10.908;2023-05-07T06:10:06;15.50;99.90
1994;DHT22;998;49.906;10.908;2023-05-07T06:12:34;15.60;99.90
1994;DHT22;998;49.906;10.908;2023-05-07T06:15:01;15.70;99.90
1994;DHT22;998;49.906;10.908;2023-05-07T06:17:30;15.80;99.90
1994;DHT22;998;49.906;10.908;2023-05-07T06:19:57;15.80;99.90
1994;DHT22;998;49.906;10.908;2023-05-07T06:22:25;15.90;99.90
1994;DHT22;998;49.906;10.908;2023-05-07T06:24:52;15.90;99.90
1994;DHT22;998;49.906;10.908;2023-05-07T06:27:19;15.90;99.90
1994;DHT22;998;49.906;10.908;2023-05-07T06:29:48;15.90;99.90
1994;DHT22;998;49.906;10.908;2023-05-07T06:32:15;15.90;99.90
1994;DHT22;998;49.906;10.908;2023-05-07T06:34:44;16.00;99.90
1994;DHT22;998;49.906;10.908;2023-05-07T06:37:11;16.00;99.90
1994;DHT22;998;49.906;10.908;2023-05-07T06:39:39;16.10;99.90
1994;DHT22;998;49.906;10.908;2023-05-07T06:42:06;16.10;99.90
1994;DHT22;998;49.906;10.908;2023-05-07T06:44:33;16.10;99.90
1994;DHT22;998;49.906;10.908;2023-05-07T06:47:01;16.20;99.90
1994;DHT22;998;49.906;10.908;2023-05-07T06:49:28;16.20;99.90
1994;DHT22;998;49.906;10.908;2023-05-07T06:51:57;16.20;99.90
1994;DHT22;998;49.906;10.908;2023-05-07T06:54:24;16.20;99.90
1994;DHT22;998;49.906;10.908;2023-05-07T06:56:52;16.20;99.90
1994;DHT22;998;49.906;10.908;2023-05-07T06:59:19;16.20;99.90
1994;DHT22;998;49.906;10.908;2023-05-07T07:01:46;16.30;99.90
1994;DHT22;998;49.906;10.908;2023-05-07T07:04:14;16.30;99.90
1994;DHT22;998;49.906;10.908;2023-05-07T07:06:41;16.40;99.90
1994;DHT22;998;49.906;10.908;2023-05-07T07:09:10;16.40;99.90
1994;DHT22;998;49.906;10.908;2023-05-07T07:11:37;16.50;99.90
1994;DHT22;998;49.906;10.908;2023-05-07T07:14:05;16.50;99.90
1994;DHT22;998;49.906;10.908;2023-05-07T07:16:32;16.50;99.90
1994;DHT22;998;49.906;10.908;2023-05-07T07:19:00;16.50;99.90
1994;DHT22;998;49.906;10.908;2023-05-07T07:21:27;16.60;99.90
1994;DHT22;998;49.906;10.908;2023-05-07T07:23:54;16.60;99.90
1994;DHT22;998;49.906;10.908;2023-05-07T07:26:35;16.70;99.90
1994;DHT22;998;49.906;10.908;2023-05-07T07:29:11;16.70;99.90
1994;DHT22;998;49.906;10.908;2023-05-07T07:31:39;16.80;99.90
1994;DHT22;998;49.906;10.908;2023-05-07T07:34:06;16.90;99.90
1994;DHT22;998;49.906;10.908;2023-05-07T07:36:33;16.90;99.90
1994;DHT22;998;49.906;10.908;2023-05-07T07:39:00;16.90;99.90
1994;DHT22;998;49.906;10.908;2023-05-07T07:41:28;16.90;99.90
1994;DHT22;998;49.906;10.908;2023-05-07T07:43:55;17.00;99.90
1994;DHT22;998;49.906;10.908;2023-05-07T07:46:22;17.00;99.90
1994;DHT22;998;49.906;10.908;2023-05-07T07:48:50;17.00;99.90
1994;DHT22;998;49.906;10.908;2023-05-07T07:51:17;17.10;99.90
1994;DHT22;998;49.906;10.908;2023-05-07T07:53:44;17.10;99.90
1994;DHT22;998;49.906;10.908;2023-05-07T07:56:12;17.10;99.90
1994;DHT22;998;49.906;10.908;2023-05-07T07:58:40;17.20;99.90
1994;DHT22;998;49.906;10.908;2023-05-07T08:01:08;17.20;99.90
1994;DHT22;998;49.906;10.908;2023-05-07T08:03:35;17.20;99.90
1994;DHT22;998;49.906;10.908;2023-05-07T08:06:02;17.30;99.90
1994;DHT22;998;49.906;10.908;2023-05-07T08:08:29;17.40;99.90
1994;DHT22;998;49.906;10.908;2023-05-07T08:10:56;17.40;99.90
1994;DHT22;998;49.906;10.908;2023-05-07T08:13:24;17.40;99.90
1994;DHT22;998;49.906;10.908;2023-05-07T08:15:53;17.50;99.90
1994;DHT22;998;49.906;10.908;2023-05-07T08:18:20;17.50;99.90
1994;DHT22;998;49.906;10.908;2023-05-07T08:20:49;17.50;99.90
1994;DHT22;998;49.906;10.908;2023-05-07T08:23:16;17.50;99.90
1994;DHT22;998;49.906;10.908;2023-05-07T08:25:43;17.60;99.90
1994;DHT22;998;49.906;10.908;2023-05-07T08:28:11;17.70;99.90
1994;DHT22;998;49.906;10.908;2023-05-07T08:30:40;17.70;99.90
1994;DHT22;998;49.906;10.908;2023-05-07T08:33:10;17.70;99.90
1994;DHT22;998;49.906;10.908;2023-05-07T08:35:37;17.80;99.90
1994;DHT22;998;49.906;10.908;2023-05-07T08:38:05;17.90;99.90
1994;DHT22;998;49.906;10.908;2023-05-07T08:40:36;18.00;99.90
1994;DHT22;998;49.906;10.908;2023-05-07T08:43:05;18.10;99.90
1994;DHT22;998;49.906;10.908;2023-05-07T08:45:33;18.10;99.90
1994;DHT22;998;49.906;10.908;2023-05-07T08:48:02;18.10;99.90
1994;DHT22;998;49.906;10.908;2023-05-07T08:50:31;18.20;99.90
1994;DHT22;998;49.906;10.908;2023-05-07T08:52:58;18.20;99.90
1994;DHT22;998;49.906;10.908;2023-05-07T08:55:25;18.20;99.90
1994;DHT22;998;49.906;10.908;2023-05-07T08:57:53;18.20;99.90
1994;DHT22;998;49.906;10.908;2023-05-07T09:00:20;18.20;99.90
1994;DHT22;998;49.906;10.908;2023-05-07T09:02:47;18.20;99.90
1994;DHT22;998;49.906;10.908;2023-05-07T09:05:14;18.30;99.90
1994;DHT22;998;49.906;10.908;2023-05-07T09:07:43;18.30;99.90
1994;DHT22;998;49.906;10.908;2023-05-07T09:10:10;18.40;99.90
1994;DHT22;998;49.906;10.908;2023-05-07T09:12:37;18.50;99.90
1994;DHT22;998;49.906;10.908;2023-05-07T09:15:06;18.50;99.90
1994;DHT22;998;49.906;10.908;2023-05-07T09:17:33;18.60;99.90
1994;DHT22;998;49.906;10.908;2023-05-07T09:20:03;18.70;99.90
1994;DHT22;998;49.906;10.908;2023-05-07T09:22:32;18.80;99.90
1994;DHT22;998;49.906;10.908;2023-05-07T09:25:01;18.90;99.90
1994;DHT22;998;49.906;10.908;2023-05-07T09:27:29;19.00;99.90
1994;DHT22;998;49.906;10.908;2023-05-07T09:29:57;19.00;99.90
1994;DHT22;998;49.906;10.908;2023-05-07T09:32:25;19.10;99.90
1994;DHT22;998;49.906;10.908;2023-05-07T09:34:52;19.00;99.90
1994;DHT22;998;49.906;10.908;2023-05-07T09:37:20;19.00;99.90
1994;DHT22;998;49.906;10.908;2023-05-07T09:39:49;19.10;99.90
1994;DHT22;998;49.906;10.908;2023-05-07T09:42:23;19.10;99.90
1994;DHT22;998;49.906;10.908;2023-05-07T09:44:51;19.10;99.90
1994;DHT22;998;49.906;10.908;2023-05-07T09:47:19;19.20;99.90
1994;DHT22;998;49.906;10.908;2023-05-07T09:49:48;19.30;99.90
1994;DHT22;998;49.906;10.908;2023-05-07T09:52:16;19.50;99.90
1994;DHT22;998;49.906;10.908;2023-05-07T09:54:45;19.50;99.90
1994;DHT22;998;49.906;10.908;2023-05-07T09:57:14;19.60;99.90
1994;DHT22;998;49.906;10.908;2023-05-07T09:59:44;19.70;99.90
1994;DHT22;998;49.906;10.908;2023-05-07T10:02:13;19.70;99.90
1994;DHT22;998;49.906;10.908;2023-05-07T10:04:42;19.80;99.90
1994;DHT22;998;49.906;10.908;2023-05-07T10:07:09;19.80;99.90
1994;DHT22;998;49.906;10.908;2023-05-07T10:09:37;19.80;99.90
1994;DHT22;998;49.906;10.908;2023-05-07T10:12:08;19.80;99.90
1994;DHT22;998;49.906;10.908;2023-05-07T10:14:36;19.80;99.90
1994;DHT22;998;49.906;10.908;2023-05-07T10:17:06;19.80;99.90
1994;DHT22;998;49.906;10.908;2023-05-07T10:19:34;19.90;99.90
1994;DHT22;998;49.906;10.908;2023-05-07T10:22:05;19.90;99.90
1994;DHT22;998;49.906;10.908;2023-05-07T10:24:33;19.90;99.90
1994;DHT22;998;49.906;10.908;2023-05-07T10:27:02;19.90;99.90
1994;DHT22;998;49.906;10.908;2023-05-07T10:29:37;20.00;99.90
1994;DHT22;998;49.906;10.908;2023-05-07T10:32:32;20.00;99.90
1994;DHT22;998;49.906;10.908;2023-05-07T10:35:03;20.10;99.90
1994;DHT22;998;49.906;10.908;2023-05-07T10:37:32;20.20;99.90
1994;DHT22;998;49.906;10.908;2023-05-07T10:40:00;20.40;99.90
1994;DHT22;998;49.906;10.908;2023-05-07T10:42:27;20.50;99.90
1994;DHT22;998;49.906;10.908;2023-05-07T10:44:55;20.60;99.90
1994;DHT22;998;49.906;10.908;2023-05-07T10:47:24;20.70;99.90
1994;DHT22;998;49.906;10.908;2023-05-07T10:50:22;20.70;99.90
1994;DHT22;998;49.906;10.908;2023-05-07T10:53:20;20.80;99.90
1994;DHT22;998;49.906;10.908;2023-05-07T10:55:51;20.90;99.90
1994;DHT22;998;49.906;10.908;2023-05-07T10:58:25;20.90;99.90
1994;DHT22;998;49.906;10.908;2023-05-07T11:00:56;20.70;99.90
1994;DHT22;998;49.906;10.908;2023-05-07T11:03:25;20.60;99.90
1994;DHT22;998;49.906;10.908;2023-05-07T11:06:12;20.50;99.90
1994;DHT22;998;49.906;10.908;2023-05-07T11:09:00;20.50;99.90
1994;DHT22;998;49.906;10.908;2023-05-07T11:11:46;20.50;99.90
1994;DHT22;998;49.906;10.908;2023-05-07T11:14:14;20.50;99.90
1994;DHT22;998;49.906;10.908;2023-05-07T11:16:43;20.50;99.90
1994;DHT22;998;49.906;10.908;2023-05-07T11:19:12;20.50;99.90
1994;DHT22;998;49.906;10.908;2023-05-07T11:21:40;20.50;99.90
1994;DHT22;998;49.906;10.908;2023-05-07T11:24:09;20.50;99.90
1994;DHT22;998;49.906;10.908;2023-05-07T11:26:45;20.50;99.90
1994;DHT22;998;49.906;10.908;2023-05-07T11:29:14;20.60;99.90
1994;DHT22;998;49.906;10.908;2023-05-07T11:31:41;20.70;99.90
1994;DHT22;998;49.906;10.908;2023-05-07T11:34:08;20.80;99.90
1994;DHT22;998;49.906;10.908;2023-05-07T11:36:42;20.90;99.90
1994;DHT22;998;49.906;10.908;2023-05-07T11:39:24;21.00;99.90
1994;DHT22;998;49.906;10.908;2023-05-07T11:41:52;21.00;99.90
1994;DHT22;998;49.906;10.908;2023-05-07T11:44:19;21.20;99.90
1994;DHT22;998;49.906;10.908;2023-05-07T11:46:46;21.30;99.90
1994;DHT22;998;49.906;10.908;2023-05-07T11:49:14;21.60;99.90
1994;DHT22;998;49.906;10.908;2023-05-07T11:51:43;21.80;99.90
1994;DHT22;998;49.906;10.908;2023-05-07T11:54:16;21.80;99.90
1994;DHT22;998;49.906;10.908;2023-05-07T11:56:44;21.80;99.90
1994;DHT22;998;49.906;10.908;2023-05-07T11:59:18;21.70;99.90
1994;DHT22;998;49.906;10.908;2023-05-07T12:01:46;21.50;99.90
1994;DHT22;998;49.906;10.908;2023-05-07T12:04:18;21.60;99.90
1994;DHT22;998;49.906;10.908;2023-05-07T12:06:47;21.60;99.90
1994;DHT22;998;49.906;10.908;2023-05-07T12:09:17;21.60;99.90
1994;DHT22;998;49.906;10.908;2023-05-07T12:11:46;21.70;99.90
1994;DHT22;998;49.906;10.908;2023-05-07T12:14:13;21.60;99.90
1994;DHT22;998;49.906;10.908;2023-05-07T12:16:42;21.60;99.90
1994;DHT22;998;49.906;10.908;2023-05-07T12:19:10;21.50;99.90
1994;DHT22;998;49.906;10.908;2023-05-07T12:21:38;21.50;99.90
1994;DHT22;998;49.906;10.908;2023-05-07T12:24:08;21.40;99.90
1994;DHT22;998;49.906;10.908;2023-05-07T12:26:38;21.50;99.90
1994;DHT22;998;49.906;10.908;2023-05-07T12:29:06;21.50;99.90
1994;DHT22;998;49.906;10.908;2023-05-07T12:31:33;21.50;99.90
1994;DHT22;998;49.906;10.908;2023-05-07T12:34:02;21.40;99.90
1994;DHT22;998;49.906;10.908;2023-05-07T12:36:37;21.40;99.90
1994;DHT22;998;49.906;10.908;2023-05-07T12:39:05;21.30;99.90
1994;DHT22;998;49.906;10.908;2023-05-07T12:41:52;21.30;99.90
1994;DHT22;998;49.906;10.908;2023-05-07T12:44:22;21.40;99.90
1994;DHT22;998;49.906;10.908;2023-05-07T12:46:50;21.40;99.90
1994;DHT22;998;49.906;10.908;2023-05-07T12:49:18;21.40;99.90
1994;DHT22;998;49.906;10.908;2023-05-07T12:51:47;21.50;99.90
1994;DHT22;998;49.906;10.908;2023-05-07T12:54:27;21.60;99.90
1994;DHT22;998;49.906;10.908;2023-05-07T12:57:02;21.80;99.90
1994;DHT22;998;49.906;10.908;2023-05-07T12:59:33;22.00;99.90
1994;DHT22;998;49.906;10.908;2023-05-07T13:02:01;22.20;99.90
1994;DHT22;998;49.906;10.908;2023-05-07T13:04:28;22.50;99.90
1994;DHT22;998;49.906;10.908;2023-05-07T13:06:56;23.40;99.90
1994;DHT22;998;49.906;10.908;2023-05-07T13:09:23;24.00;99.90
1994;DHT22;998;49.906;10.908;2023-05-07T13:11:50;24.10;99.90
1994;DHT22;998;49.906;10.908;2023-05-07T13:14:19;23.80;99.90
1994;DHT22;998;49.906;10.908;2023-05-07T13:16:47;23.40;99.90
1994;DHT22;998;49.906;10.908;2023-05-07T13:19:18;23.40;99.90
1994;DHT22;998;49.906;10.908;2023-05-07T13:21:45;23.50;99.90
1994;DHT22;998;49.906;10.908;2023-05-07T13:24:13;23.80;99.90
1994;DHT22;998;49.906;10.908;2023-05-07T13:26:40;23.70;99.90
1994;DHT22;998;49.906;10.908;2023-05-07T13:29:07;23.50;99.90
1994;DHT22;998;49.906;10.908;2023-05-07T13:31:37;23.30;99.90
1994;DHT22;998;49.906;10.908;2023-05-07T13:34:08;23.30;99.90
1994;DHT22;998;49.906;10.908;2023-05-07T13:36:35;23.20;99.90
1994;DHT22;998;49.906;10.908;2023-05-07T13:39:05;23.20;99.90
1994;DHT22;998;49.906;10.908;2023-05-07T13:41:33;23.20;99.90
1994;DHT22;998;49.906;10.908;2023-05-07T13:44:00;23.30;99.90
1994;DHT22;998;49.906;10.908;2023-05-07T13:46:27;23.40;99.90
1994;DHT22;998;49.906;10.908;2023-05-07T13:48:57;23.50;99.90
1994;DHT22;998;49.906;10.908;2023-05-07T13:51:24;23.40;99.90
1994;DHT22;998;49.906;10.908;2023-05-07T13:53:52;23.20;99.90
1994;DHT22;998;49.906;10.908;2023-05-07T13:56:20;23.00;99.90
1994;DHT22;998;49.906;10.908;2023-05-07T13:58:47;22.90;99.90
1994;DHT22;998;49.906;10.908;2023-05-07T14:01:14;22.80;99.90
1994;DHT22;998;49.906;10.908;2023-05-07T14:03:42;22.80;99.90
1994;DHT22;998;49.906;10.908;2023-05-07T14:06:10;23.10;99.90
1994;DHT22;998;49.906;10.908;2023-05-07T14:08:38;23.20;99.90
1994;DHT22;998;49.906;10.908;2023-05-07T14:11:05;23.00;99.90
1994;DHT22;998;49.906;10.908;2023-05-07T14:13:33;22.90;99.90
1994;DHT22;998;49.906;10.908;2023-05-07T14:16:00;22.70;99.90
1994;DHT22;998;49.906;10.908;2023-05-07T14:18:28;22.90;99.90
1994;DHT22;998;49.906;10.908;2023-05-07T14:20:56;23.10;99.90
1994;DHT22;998;49.906;10.908;2023-05-07T14:23:25;23.10;99.90
1994;DHT22;998;49.906;10.908;2023-05-07T14:25:53;22.90;99.80
1994;DHT22;998;49.906;10.908;2023-05-07T14:28:20;22.70;99.90
1994;DHT22;998;49.906;10.908;2023-05-07T14:30:48;22.60;99.90
1994;DHT22;998;49.906;10.908;2023-05-07T14:33:15;22.50;99.90
1994;DHT22;998;49.906;10.908;2023-05-07T14:35:43;22.50;99.90
1994;DHT22;998;49.906;10.908;2023-05-07T14:38:14;22.30;99.90
1994;DHT22;998;49.906;10.908;2023-05-07T14:40:42;22.40;99.90
1994;DHT22;998;49.906;10.908;2023-05-07T14:43:10;22.40;99.90
1994;DHT22;998;49.906;10.908;2023-05-07T14:45:37;22.40;99.90
1994;DHT22;998;49.906;10.908;2023-05-07T14:48:05;22.40;99.90
1994;DHT22;998;49.906;10.908;2023-05-07T14:50:32;22.40;99.90
1994;DHT22;998;49.906;10.908;2023-05-07T14:53:00;22.40;99.90
1994;DHT22;998;49.906;10.908;2023-05-07T14:55:27;22.50;99.90
1994;DHT22;998;49.906;10.908;2023-05-07T14:57:57;22.60;99.90
1994;DHT22;998;49.906;10.908;2023-05-07T15:00:24;22.70;99.90
1994;DHT22;998;49.906;10.908;2023-05-07T15:02:52;22.90;99.90
1994;DHT22;998;49.906;10.908;2023-05-07T15:05:19;23.00;99.90
1994;DHT22;998;49.906;10.908;2023-05-07T15:07:46;23.20;99.90
1994;DHT22;998;49.906;10.908;2023-05-07T15:10:14;23.30;99.90
1994;DHT22;998;49.906;10.908;2023-05-07T15:12:41;23.30;99.90
1994;DHT22;998;49.906;10.908;2023-05-07T15:15:11;23.20;99.50
1994;DHT22;998;49.906;10.908;2023-05-07T15:17:38;23.00;99.90
1994;DHT22;998;49.906;10.908;2023-05-07T15:20:07;22.90;99.60
1994;DHT22;998;49.906;10.908;2023-05-07T15:22:34;22.80;98.90
1994;DHT22;998;49.906;10.908;2023-05-07T15:25:03;22.70;98.20
1994;DHT22;998;49.906;10.908;2023-05-07T15:27:31;22.70;99.20
1994;DHT22;998;49.906;10.908;2023-05-07T15:29:58;22.60;99.00
1994;DHT22;998;49.906;10.908;2023-05-07T15:32:27;22.60;98.10
1994;DHT22;998;49.906;10.908;2023-05-07T15:34:54;22.50;97.40
1994;DHT22;998;49.906;10.908;2023-05-07T15:37:22;22.50;97.60
1994;DHT22;998;49.906;10.908;2023-05-07T15:39:50;22.40;98.20
1994;DHT22;998;49.906;10.908;2023-05-07T15:42:17;22.30;98.00
1994;DHT22;998;49.906;10.908;2023-05-07T15:44:44;22.30;98.40
1994;DHT22;998;49.906;10.908;2023-05-07T15:47:12;22.20;98.20
1994;DHT22;998;49.906;10.908;2023-05-07T15:49:41;22.20;98.30
1994;DHT22;998;49.906;10.908;2023-05-07T15:52:09;22.10;98.40
1994;DHT22;998;49.906;10.908;2023-05-07T15:54:39;22.10;98.60
1994;DHT22;998;49.906;10.908;2023-05-07T15:57:07;22.10;99.00
1994;DHT22;998;49.906;10.908;2023-05-07T15:59:34;22.20;99.60
1994;DHT22;998;49.906;10.908;2023-05-07T16:02:02;22.10;99.30
1994;DHT22;998;49.906;10.908;2023-05-07T16:04:30;22.10;99.90
1994;DHT22;998;49.906;10.908;2023-05-07T16:06:59;22.10;99.90
1994;DHT22;998;49.906;10.908;2023-05-07T16:09:26;22.00;99.90